createdAt,value
2023-03-06T00:04:32.999Z,9.98
2023-03-06T00:07:02.102Z,9.80
2023-03-06T00:09:30.926Z,10.73
2023-03-06T00:11:59.833Z,10.35
2023-03-06T00:14:29.756Z,10.15
2023-03-06T00:16:58.242Z,9.80
2023-03-06T00:19:26.831Z,11.27
2023-03-06T00:21:56.721Z,11.55
2023-03-06T00:24:24.979Z,12.40
2023-03-06T00:26:53.887Z,12.98
2023-03-06T00:29:22.354Z,12.57
2023-03-06T00:31:54.275Z,13.00
2023-03-06T00:34:22.763Z,14.45
2023-03-06T00:36:53.468Z,13.93
2023-03-06T00:39:23.343Z,12.05
2023-03-06T00:41:58.849Z,10.77
2023-03-06T00:44:27.203Z,12.57
2023-03-06T00:46:58.718Z,11.20
2023-03-06T00:49:28.018Z,12.60
2023-03-06T00:51:56.796Z,12.13
2023-03-06T00:54:25.343Z,12.95
2023-03-06T00:56:54.152Z,11.57
2023-03-06T00:59:23.481Z,10.43
2023-03-06T01:01:52.353Z,11.15
2023-03-06T01:04:21.947Z,10.25
2023-03-06T01:06:50.792Z,10.35
2023-03-06T01:09:19.203Z,9.48
2023-03-06T01:11:48.028Z,9.05
2023-03-06T01:14:19.103Z,9.02
2023-03-06T01:16:48.020Z,10.25
2023-03-06T01:19:17.856Z,8.90
2023-03-06T01:21:47.763Z,9.85
2023-03-06T01:24:17.270Z,9.63
2023-03-06T01:26:46.144Z,9.45
2023-03-06T01:29:14.881Z,9.27
2023-03-06T01:31:43.632Z,9.73
2023-03-06T01:34:12.508Z,9.18
2023-03-06T01:36:41.037Z,9.23
2023-03-06T01:39:11.052Z,9.93
2023-03-06T01:41:42.956Z,10.75
2023-03-06T01:44:15.855Z,9.80
2023-03-06T01:46:44.575Z,9.48
2023-03-06T01:49:17.650Z,8.27
2023-03-06T01:54:22.745Z,9.15
2023-03-06T01:56:54.554Z,9.63
2023-03-06T01:59:23.875Z,8.25
2023-03-06T02:01:52.700Z,8.50
2023-03-06T02:04:21.980Z,7.53
2023-03-06T02:06:52.414Z,8.48
2023-03-06T02:09:22.503Z,8.60
2023-03-06T02:11:51.644Z,8.98
2023-03-06T02:14:20.258Z,7.93
2023-03-06T02:16:52.685Z,7.68
2023-03-06T02:19:34.196Z,9.30
2023-03-06T02:22:02.816Z,7.75
2023-03-06T02:24:43.088Z,8.73
2023-03-06T02:27:15.722Z,8.57
2023-03-06T02:29:46.458Z,8.50
2023-03-06T02:32:15.383Z,8.85
2023-03-06T02:34:58.787Z,8.45
2023-03-06T02:37:29.772Z,8.00
2023-03-06T02:40:09.073Z,8.02
2023-03-06T02:42:38.804Z,8.10
2023-03-06T02:45:15.950Z,7.70
2023-03-06T02:47:48.533Z,7.82
2023-03-06T02:50:17.382Z,7.32
2023-03-06T02:53:00.168Z,8.35
2023-03-06T02:55:30.586Z,7.78
2023-03-06T02:58:00.742Z,7.18
2023-03-06T03:00:32.284Z,7.45
2023-03-06T03:03:00.638Z,7.88
2023-03-06T03:05:29.226Z,7.57
2023-03-06T03:07:57.938Z,7.10
2023-03-06T03:10:27.797Z,7.30
2023-03-06T03:12:56.108Z,7.60
2023-03-06T03:15:27.985Z,7.70
2023-03-06T03:17:59.849Z,7.53
2023-03-06T03:20:28.250Z,7.95
2023-03-06T03:22:59.911Z,7.72
2023-03-06T03:25:29.494Z,7.95
2023-03-06T03:27:58.380Z,7.05
2023-03-06T03:30:32.292Z,7.93
2023-03-06T03:33:00.859Z,7.90
2023-03-06T03:35:29.861Z,6.95
2023-03-06T03:37:59.028Z,7.50
2023-03-06T03:40:30.499Z,7.80
2023-03-06T03:42:58.943Z,7.65
2023-03-06T03:45:28.838Z,8.25
2023-03-06T03:47:57.650Z,7.43
2023-03-06T03:50:28.556Z,7.43
2023-03-06T03:52:58.388Z,7.90
2023-03-06T03:55:27.097Z,7.50
2023-03-06T03:57:55.382Z,8.35
2023-03-06T04:00:23.926Z,7.43
2023-03-06T04:02:54.851Z,7.45
2023-03-06T04:05:26.145Z,7.47
2023-03-06T04:07:56.086Z,7.38
2023-03-06T04:10:25.563Z,7.55
2023-03-06T04:12:53.622Z,8.30
2023-03-06T04:15:22.089Z,8.55
2023-03-06T04:17:50.685Z,7.63
2023-03-06T04:20:20.420Z,7.03
2023-03-06T04:22:51.391Z,8.07
2023-03-06T04:25:20.134Z,7.53
2023-03-06T04:27:48.566Z,7.53
2023-03-06T04:30:25.914Z,7.95
2023-03-06T04:32:54.592Z,8.43
2023-03-06T04:35:24.349Z,7.55
2023-03-06T04:37:52.926Z,8.27
2023-03-06T04:40:24.370Z,8.65
2023-03-06T04:42:52.716Z,7.78
2023-03-06T04:45:23.570Z,8.52
2023-03-06T04:47:51.981Z,8.10
2023-03-06T04:50:23.122Z,8.55
2023-03-06T04:52:53.141Z,8.48
2023-03-06T04:55:25.784Z,8.27
2023-03-06T04:57:54.127Z,7.35
2023-03-06T05:00:25.337Z,8.63
2023-03-06T05:02:54.013Z,8.40
2023-03-06T05:05:23.467Z,8.18
2023-03-06T05:07:55.477Z,8.05
2023-03-06T05:10:26.014Z,8.25
2023-03-06T05:12:56.864Z,8.23
2023-03-06T05:15:25.632Z,8.68
2023-03-06T05:17:55.550Z,8.13
2023-03-06T05:20:24.827Z,8.43
2023-03-06T05:22:55.506Z,8.35
2023-03-06T05:25:24.396Z,8.48
2023-03-06T05:27:52.696Z,8.20
2023-03-06T05:30:24.264Z,8.50
2023-03-06T05:32:53.244Z,8.77
2023-03-06T05:35:23.888Z,8.05
2023-03-06T05:37:57.281Z,8.40
2023-03-06T05:40:31.114Z,8.85
2023-03-06T05:42:59.482Z,9.05
2023-03-06T05:45:28.266Z,8.55
2023-03-06T05:47:56.810Z,9.27
2023-03-06T05:50:26.666Z,9.32
2023-03-06T05:52:59.287Z,9.13
2023-03-06T05:55:28.604Z,9.90
2023-03-06T05:57:57.455Z,9.50
2023-03-06T06:00:26.536Z,8.65
2023-03-06T06:02:55.946Z,8.65
2023-03-06T06:05:24.586Z,8.75
2023-03-06T06:07:54.215Z,8.95
2023-03-06T06:10:26.416Z,9.07
2023-03-06T06:12:59.038Z,8.65
2023-03-06T06:15:29.170Z,8.07
2023-03-06T06:17:58.096Z,8.85
2023-03-06T06:20:27.430Z,9.63
2023-03-06T06:22:56.354Z,8.70
2023-03-06T06:25:29.372Z,9.15
2023-03-06T06:30:27.002Z,9.57
2023-03-06T06:32:59.239Z,9.40
2023-03-06T06:35:31.694Z,8.93
2023-03-06T06:38:01.152Z,8.65
2023-03-06T06:40:31.134Z,9.02
2023-03-06T06:42:59.856Z,10.15
2023-03-06T06:45:28.678Z,10.35
2023-03-06T06:47:57.545Z,9.95
2023-03-06T06:50:26.703Z,10.52
2023-03-06T06:52:55.534Z,9.13
2023-03-06T06:55:24.857Z,10.00
2023-03-06T06:57:56.230Z,8.32
2023-03-06T07:00:26.860Z,8.85
2023-03-06T07:02:55.525Z,9.38
2023-03-06T07:05:25.384Z,10.32
2023-03-06T07:07:53.915Z,8.93
2023-03-06T07:10:25.145Z,9.57
2023-03-06T07:12:56.548Z,9.55
2023-03-06T07:15:27.532Z,8.98
2023-03-06T07:17:56.514Z,8.23
2023-03-06T07:20:26.960Z,8.52
2023-03-06T07:22:57.027Z,8.82
2023-03-06T07:25:26.936Z,10.75
2023-03-06T07:27:58.116Z,11.52
2023-03-06T07:30:30.303Z,9.63
2023-03-06T07:33:00.216Z,10.43
2023-03-06T07:35:28.985Z,11.20
2023-03-06T07:37:57.593Z,12.00
2023-03-06T07:40:27.449Z,11.20
2023-03-06T07:43:16.874Z,9.95
2023-03-06T07:45:50.432Z,10.65
2023-03-06T07:48:19.864Z,9.88
2023-03-06T07:50:57.867Z,11.07
2023-03-06T07:53:26.608Z,9.30
2023-03-06T07:55:59.006Z,10.10
2023-03-06T07:58:29.221Z,10.45
2023-03-06T08:01:06.582Z,10.07
2023-03-06T08:03:35.360Z,8.70
2023-03-06T08:06:08.876Z,10.13
2023-03-06T08:08:39.114Z,8.68
2023-03-06T08:11:08.017Z,9.70
2023-03-06T08:13:39.129Z,10.35
2023-03-06T08:16:09.264Z,10.93
2023-03-06T08:18:39.961Z,11.35
2023-03-06T08:21:14.076Z,10.70
2023-03-06T08:23:44.763Z,9.98
2023-03-06T08:26:15.015Z,9.95
2023-03-06T08:28:48.500Z,11.95
2023-03-06T08:31:26.840Z,10.18
2023-03-06T08:33:55.870Z,10.60
2023-03-06T08:36:24.890Z,10.90
2023-03-06T08:38:55.739Z,9.90
2023-03-06T08:41:24.305Z,11.90
2023-03-06T08:43:55.022Z,11.68
2023-03-06T08:46:25.337Z,10.88
2023-03-06T08:48:54.422Z,11.40
2023-03-06T08:51:24.133Z,11.43
2023-03-06T08:53:53.947Z,11.20
2023-03-06T08:56:25.938Z,13.27
2023-03-06T08:58:59.813Z,13.18
2023-03-06T09:01:31.169Z,12.43
2023-03-06T09:04:00.938Z,12.68
2023-03-06T09:06:32.557Z,10.50
2023-03-06T09:09:01.853Z,10.10
2023-03-06T09:11:30.534Z,10.13
2023-03-06T09:14:01.330Z,9.68
2023-03-06T09:16:29.860Z,10.50
2023-03-06T09:18:58.910Z,10.15
2023-03-06T09:21:28.783Z,9.07
2023-03-06T09:23:57.699Z,10.27
2023-03-06T09:26:43.280Z,10.55
2023-03-06T09:29:16.700Z,10.60
2023-03-06T09:31:45.755Z,10.15
2023-03-06T09:34:15.186Z,9.93
2023-03-06T09:36:55.813Z,10.02
2023-03-06T09:39:25.538Z,10.27
2023-03-06T09:41:54.724Z,10.57
2023-03-06T09:44:27.995Z,10.85
2023-03-06T09:47:14.379Z,9.40
2023-03-06T09:49:57.780Z,11.13
2023-03-06T09:52:34.062Z,10.27
2023-03-06T09:55:13.990Z,10.25
2023-03-06T09:57:55.414Z,11.20
2023-03-06T10:00:33.852Z,10.52
2023-03-06T10:03:17.017Z,10.07
2023-03-06T10:05:54.909Z,11.30
2023-03-06T10:08:30.296Z,13.32
2023-03-06T10:11:03.944Z,11.70
2023-03-06T10:13:40.992Z,15.55
2023-03-06T10:16:23.875Z,12.65
2023-03-06T10:18:53.936Z,11.30
2023-03-06T10:21:33.750Z,11.07
2023-03-06T10:24:16.259Z,10.88
2023-03-06T10:26:51.425Z,11.77
2023-03-06T10:29:41.053Z,12.35
2023-03-06T10:32:34.260Z,12.55
2023-03-06T10:35:18.360Z,11.88
2023-03-06T10:37:47.244Z,12.43
2023-03-06T10:40:20.594Z,14.63
2023-03-06T10:42:56.070Z,12.27
2023-03-06T10:45:40.526Z,10.43
2023-03-06T10:48:26.526Z,12.15
2023-03-06T10:50:55.734Z,12.35
2023-03-06T10:53:26.464Z,10.95
2023-03-06T10:56:07.357Z,10.40
2023-03-06T10:58:36.290Z,11.82
2023-03-06T11:01:08.942Z,11.73
2023-03-06T11:03:39.434Z,11.18
2023-03-06T11:06:13.136Z,11.10
2023-03-06T11:08:44.652Z,11.77
2023-03-06T11:11:28.214Z,9.45
2023-03-06T11:14:04.048Z,10.65
2023-03-06T11:16:36.958Z,10.20
2023-03-06T11:19:20.432Z,10.05
2023-03-06T11:22:02.058Z,10.02
2023-03-06T11:24:38.226Z,10.75
2023-03-06T11:27:24.538Z,9.68
2023-03-06T11:29:56.852Z,9.55
2023-03-06T11:32:30.727Z,10.32
2023-03-06T11:35:05.315Z,11.63
2023-03-06T11:37:44.336Z,10.45
2023-03-06T11:40:21.546Z,10.32
2023-03-06T11:42:59.304Z,9.90
2023-03-06T11:45:35.190Z,10.15
2023-03-06T11:48:21.645Z,10.90
2023-03-06T11:50:57.650Z,11.27
2023-03-06T11:53:42.727Z,10.25
2023-03-06T11:56:34.215Z,10.65
2023-03-06T11:59:32.287Z,10.88
2023-03-06T12:02:06.533Z,10.48
2023-03-06T12:04:54.740Z,11.77
2023-03-06T12:07:36.459Z,9.40
2023-03-06T12:10:18.143Z,8.68
2023-03-06T12:16:14.830Z,8.85
2023-03-06T12:18:55.971Z,8.50
2023-03-06T12:21:36.776Z,9.00
2023-03-06T12:24:26.171Z,9.13
2023-03-06T12:27:09.197Z,7.43
2023-03-06T12:29:58.413Z,9.63
2023-03-06T12:32:39.730Z,9.57
2023-03-06T12:35:36.555Z,8.85
2023-03-06T12:38:34.745Z,9.48
2023-03-06T12:41:24.301Z,8.30
2023-03-06T12:44:06.934Z,9.40
2023-03-06T12:46:40.718Z,9.65
2023-03-06T12:49:17.817Z,9.43
2023-03-06T12:51:52.012Z,10.00
2023-03-06T12:54:29.837Z,8.60
2023-03-06T12:57:01.909Z,9.05
2023-03-06T12:59:44.518Z,9.07
2023-03-06T13:02:59.041Z,8.55
2023-03-06T13:06:12.214Z,8.75
2023-03-06T13:09:13.296Z,8.20
2023-03-06T13:12:26.802Z,8.68
2023-03-06T13:14:58.756Z,9.75
2023-03-06T13:17:38.488Z,9.48
2023-03-06T13:20:31.354Z,9.52
2023-03-06T13:23:17.679Z,9.27
2023-03-06T13:25:51.235Z,10.32
2023-03-06T13:28:46.684Z,10.02
2023-03-06T13:31:28.505Z,9.27
2023-03-06T13:34:00.993Z,10.77
2023-03-06T13:36:32.181Z,11.43
2023-03-06T13:39:02.273Z,11.73
2023-03-06T13:41:43.698Z,10.90
2023-03-06T13:44:49.514Z,11.18
2023-03-06T13:50:51.687Z,10.67
2023-03-06T13:53:50.378Z,10.07
2023-03-06T13:56:58.795Z,10.60
2023-03-06T14:00:09.822Z,8.73
2023-03-06T14:03:41.150Z,7.82
2023-03-06T14:06:42.858Z,7.75
2023-03-06T14:09:23.640Z,6.97
2023-03-06T14:11:55.886Z,6.38
2023-03-06T14:14:36.668Z,6.43
2023-03-06T14:17:06.607Z,5.88
2023-03-06T14:19:40.469Z,6.72
2023-03-06T14:22:18.765Z,6.13
2023-03-06T14:24:57.444Z,7.07
2023-03-06T14:27:43.844Z,6.95
2023-03-06T14:30:17.707Z,7.70
2023-03-06T14:32:46.424Z,7.60
2023-03-06T14:35:29.294Z,6.97
2023-03-06T14:38:02.804Z,8.90
2023-03-06T14:40:33.191Z,8.15
2023-03-06T14:43:22.228Z,8.02
2023-03-06T14:45:56.016Z,7.63
2023-03-06T14:48:28.206Z,8.48
2023-03-06T14:50:59.977Z,7.90
2023-03-06T14:53:31.077Z,8.30
2023-03-06T14:56:02.729Z,7.28
2023-03-06T14:58:36.720Z,7.72
2023-03-06T15:01:09.178Z,7.72
2023-03-06T15:03:45.572Z,8.05
2023-03-06T15:06:20.337Z,8.38
2023-03-06T15:08:51.829Z,7.82
2023-03-06T15:11:21.250Z,9.07
2023-03-06T15:14:02.357Z,7.82
2023-03-06T15:16:31.648Z,8.43
2023-03-06T15:19:01.979Z,7.70
2023-03-06T15:21:39.174Z,7.90
2023-03-06T15:24:33.333Z,8.07
2023-03-06T15:27:05.060Z,8.13
2023-03-06T15:29:34.039Z,7.70
2023-03-06T15:32:17.453Z,7.32
2023-03-06T15:34:45.770Z,7.60
2023-03-06T15:37:30.368Z,8.18
2023-03-06T15:40:10.294Z,8.95
2023-03-06T15:42:38.964Z,8.70
2023-03-06T15:45:16.159Z,8.43
2023-03-06T15:47:46.539Z,9.07
2023-03-06T15:50:16.879Z,8.98
2023-03-06T15:52:48.936Z,9.88
2023-03-06T15:55:18.479Z,10.38
2023-03-06T15:57:50.948Z,9.02
2023-03-06T16:00:28.001Z,8.35
2023-03-06T16:02:56.688Z,9.65
2023-03-06T16:05:25.989Z,9.18
2023-03-06T16:07:56.237Z,10.00
2023-03-06T16:10:26.673Z,10.50
2023-03-06T16:12:58.354Z,10.55
2023-03-06T16:15:29.087Z,12.25
2023-03-06T16:17:57.575Z,18.13
2023-03-06T16:20:29.993Z,16.33
2023-03-06T16:22:59.879Z,12.45
2023-03-06T16:25:29.661Z,18.25
2023-03-06T16:27:59.601Z,14.07
2023-03-06T16:30:30.032Z,20.63
2023-03-06T16:33:00.988Z,11.90
2023-03-06T16:35:29.595Z,14.52
2023-03-06T16:37:58.782Z,16.95
2023-03-06T16:40:30.404Z,20.65
2023-03-06T16:43:01.038Z,16.85
2023-03-06T16:45:31.693Z,16.85
2023-03-06T16:48:00.479Z,14.63
2023-03-06T16:50:30.087Z,11.18
2023-03-06T16:53:08.083Z,21.77
2023-03-06T16:55:38.072Z,12.90
2023-03-06T16:58:08.599Z,17.75
2023-03-06T17:00:37.002Z,16.20
2023-03-06T17:03:05.715Z,23.33
2023-03-06T17:05:36.698Z,10.68
2023-03-06T17:08:05.672Z,13.95
2023-03-06T17:10:35.246Z,11.02
2023-03-06T17:13:05.173Z,11.75
2023-03-06T17:15:33.532Z,9.85
2023-03-06T17:18:03.815Z,10.02
2023-03-06T17:20:33.127Z,9.80
2023-03-06T17:23:02.534Z,11.18
2023-03-06T17:25:30.825Z,10.25
2023-03-06T17:27:59.080Z,10.20
2023-03-06T17:30:30.924Z,9.63
2023-03-06T17:33:00.332Z,9.85
2023-03-06T17:35:28.954Z,10.35
2023-03-06T17:37:59.609Z,10.30
2023-03-06T17:40:27.926Z,10.75
2023-03-06T17:42:56.259Z,11.20
2023-03-06T17:45:24.631Z,11.15
2023-03-06T17:47:56.350Z,20.20
2023-03-06T17:50:24.985Z,18.90
2023-03-06T17:52:55.512Z,14.70
2023-03-06T17:55:26.492Z,11.57
2023-03-06T17:57:55.035Z,10.93
2023-03-06T18:00:24.648Z,11.38
2023-03-06T18:02:53.199Z,10.43
2023-03-06T18:05:22.865Z,11.40
2023-03-06T18:07:51.254Z,10.68
2023-03-06T18:10:19.899Z,10.48
2023-03-06T18:12:48.177Z,10.70
2023-03-06T18:15:17.010Z,10.50
2023-03-06T18:17:45.250Z,10.70
2023-03-06T18:20:14.216Z,10.30
2023-03-06T18:22:44.108Z,10.35
2023-03-06T18:25:12.398Z,10.32
2023-03-06T18:27:40.692Z,9.82
2023-03-06T18:30:09.894Z,10.23
2023-03-06T18:32:38.192Z,9.85
2023-03-06T18:35:09.196Z,11.07
2023-03-06T18:37:37.622Z,10.15
2023-03-06T18:40:09.939Z,9.93
2023-03-06T18:42:38.163Z,9.20
2023-03-06T18:45:07.890Z,10.10
2023-03-06T18:47:36.161Z,10.80
2023-03-06T18:50:04.570Z,9.68
2023-03-06T18:52:35.748Z,10.45
2023-03-06T18:55:04.068Z,9.93
2023-03-06T18:57:33.586Z,11.00
2023-03-06T19:00:02.006Z,9.48
2023-03-06T19:02:30.269Z,9.52
2023-03-06T19:05:09.016Z,10.75
2023-03-06T19:07:37.694Z,10.18
2023-03-06T19:10:06.773Z,10.30
2023-03-06T19:12:36.647Z,9.57
2023-03-06T19:15:05.585Z,10.00
2023-03-06T19:17:34.880Z,10.90
2023-03-06T19:20:03.386Z,9.90
2023-03-06T19:22:32.193Z,9.95
2023-03-06T19:25:03.383Z,9.88
2023-03-06T19:27:32.616Z,10.23
2023-03-06T19:30:02.298Z,10.93
2023-03-06T19:32:31.205Z,10.38
2023-03-06T19:34:59.991Z,9.40
2023-03-06T19:37:29.000Z,9.48
2023-03-06T19:40:01.175Z,9.63
2023-03-06T19:42:29.753Z,10.07
2023-03-06T19:44:58.195Z,10.80
2023-03-06T19:47:27.827Z,10.55
2023-03-06T19:49:56.368Z,10.57
2023-03-06T19:52:24.792Z,10.52
2023-03-06T19:54:55.988Z,11.48
2023-03-06T19:57:24.497Z,11.18
2023-03-06T19:59:56.938Z,10.40
2023-03-06T20:02:28.476Z,10.88
2023-03-06T20:04:57.050Z,10.45
2023-03-06T20:07:25.318Z,10.38
2023-03-06T20:09:54.392Z,10.38
2023-03-06T20:12:22.758Z,9.63
2023-03-06T20:14:53.403Z,9.80
2023-03-06T20:17:22.526Z,10.65
2023-03-06T20:19:52.776Z,10.65
2023-03-06T20:22:21.709Z,10.18
2023-03-06T20:24:50.102Z,10.35
2023-03-06T20:27:18.721Z,10.20
2023-03-06T20:29:47.440Z,9.93
2023-03-06T20:32:18.166Z,9.27
2023-03-06T20:34:46.516Z,10.30
2023-03-06T20:37:17.428Z,10.43
2023-03-06T20:39:46.725Z,9.75
2023-03-06T20:42:15.336Z,9.73
2023-03-06T20:44:46.033Z,10.60
2023-03-06T20:47:14.673Z,10.57
2023-03-06T20:49:43.691Z,10.98
2023-03-06T20:52:12.246Z,9.73
2023-03-06T20:54:42.386Z,9.65
2023-03-06T20:57:11.217Z,10.25
2023-03-06T20:59:40.347Z,10.10
2023-03-06T21:02:09.613Z,10.20
2023-03-06T21:04:41.102Z,9.25
2023-03-06T21:07:10.897Z,10.13
2023-03-06T21:09:41.814Z,10.93
2023-03-06T21:12:11.382Z,11.60
2023-03-06T21:14:39.966Z,10.23
2023-03-06T21:17:08.239Z,10.32
2023-03-06T21:19:37.945Z,11.40
2023-03-06T21:22:06.312Z,10.80
2023-03-06T21:24:34.584Z,11.25
2023-03-06T21:27:03.621Z,10.55
2023-03-06T21:29:35.271Z,10.98
2023-03-06T21:32:04.455Z,10.13
2023-03-06T21:34:35.826Z,10.88
2023-03-06T21:37:05.285Z,10.48
2023-03-06T21:39:33.494Z,11.60
2023-03-06T21:42:02.313Z,10.75
2023-03-06T21:44:30.590Z,10.52
2023-03-06T21:47:02.975Z,10.77
2023-03-06T21:49:32.002Z,10.43
2023-03-06T21:52:01.721Z,11.32
2023-03-06T21:54:30.098Z,11.98
2023-03-06T21:56:58.632Z,12.93
2023-03-06T21:59:27.420Z,11.52
2023-03-06T22:01:55.924Z,10.98
2023-03-06T22:04:25.296Z,12.48
2023-03-06T22:06:53.598Z,11.98
2023-03-06T22:09:22.207Z,11.50
2023-03-06T22:11:50.640Z,11.63
2023-03-06T22:14:18.841Z,12.95
2023-03-06T22:16:47.303Z,11.45
2023-03-06T22:19:16.206Z,12.23
2023-03-06T22:21:45.721Z,11.85
2023-03-06T22:24:16.458Z,11.95
2023-03-06T22:26:44.872Z,11.75
2023-03-06T22:29:13.381Z,12.40
2023-03-06T22:31:41.711Z,12.63
2023-03-06T22:34:11.245Z,12.63
2023-03-06T22:36:40.176Z,12.00
2023-03-06T22:39:12.525Z,12.20
2023-03-06T22:41:41.465Z,11.82
2023-03-06T22:44:09.664Z,12.18
2023-03-06T22:46:38.219Z,12.63
2023-03-06T22:49:06.437Z,12.43
2023-03-06T22:51:37.420Z,12.93
2023-03-06T22:54:06.004Z,13.77
2023-03-06T22:56:36.256Z,12.25
2023-03-06T22:59:04.576Z,15.95
2023-03-06T23:01:34.935Z,16.75
2023-03-06T23:04:11.178Z,15.52
2023-03-06T23:06:40.710Z,15.07
2023-03-06T23:09:15.314Z,14.40
2023-03-06T23:11:44.633Z,17.00
2023-03-06T23:14:15.072Z,16.77
2023-03-06T23:16:43.648Z,14.48
2023-03-06T23:19:12.296Z,14.18
2023-03-06T23:21:40.812Z,13.57
2023-03-06T23:24:09.246Z,15.52
2023-03-06T23:26:37.851Z,15.35
2023-03-06T23:29:07.450Z,14.73
2023-03-06T23:31:35.982Z,16.90
2023-03-06T23:34:06.057Z,16.05
2023-03-06T23:36:34.371Z,15.63
2023-03-06T23:39:02.717Z,13.90
2023-03-06T23:41:31.005Z,14.32
2023-03-06T23:44:00.061Z,13.02
2023-03-06T23:46:29.945Z,13.02
2023-03-06T23:48:58.427Z,12.98
2023-03-06T23:51:26.867Z,12.85
2023-03-06T23:53:57.058Z,11.88
2023-03-06T23:56:27.555Z,12.77
2023-03-06T23:58:56.123Z,14.07
